createdAt,value
2018-03-17T00:00:47.907Z,22.50
2018-03-17T00:01:48.129Z,23.40
2018-03-17T00:02:48.345Z,22.10
2018-03-17T00:03:48.564Z,21.50
2018-03-17T00:04:48.788Z,24.40
2018-03-17T00:05:49.001Z,23.40
2018-03-17T00:06:49.226Z,24.70
2018-03-17T00:07:49.443Z,24.10
2018-03-17T00:08:49.671Z,20.60
2018-03-17T00:09:49.886Z,22.30
2018-03-17T00:10:50.102Z,20.50
2018-03-17T00:11:50.318Z,20.70
2018-03-17T00:12:50.538Z,22.50
2018-03-17T00:13:50.758Z,21.30
2018-03-17T00:14:50.981Z,25.30
2018-03-17T00:15:51.210Z,24.70
2018-03-17T00:16:51.420Z,23.50
2018-03-17T00:17:51.643Z,26.40
2018-03-17T00:18:51.860Z,22.50
2018-03-17T00:19:52.084Z,23.20
2018-03-17T00:20:52.303Z,22.10
2018-03-17T00:21:52.520Z,20.30
2018-03-17T00:22:52.743Z,19.40
2018-03-17T00:23:52.958Z,24.60
2018-03-17T00:24:53.182Z,24.30
2018-03-17T00:25:53.404Z,22.20
2018-03-17T00:26:53.625Z,22.20
2018-03-17T00:27:53.845Z,24.00
2018-03-17T00:28:54.066Z,24.60
2018-03-17T00:29:54.289Z,22.10
2018-03-17T00:30:54.506Z,22.00
2018-03-17T00:31:54.728Z,20.30
2018-03-17T00:32:54.947Z,20.80
2018-03-17T00:33:55.168Z,19.50
2018-03-17T00:34:55.392Z,21.40
2018-03-17T00:35:55.609Z,21.00
2018-03-17T00:36:55.830Z,20.20
2018-03-17T00:37:56.051Z,21.80
2018-03-17T00:38:56.272Z,22.70
2018-03-17T00:39:56.490Z,20.40
2018-03-17T00:40:56.713Z,22.10
2018-03-17T00:41:56.938Z,20.90
2018-03-17T00:42:57.162Z,20.80
2018-03-17T00:43:57.373Z,22.20
2018-03-17T00:44:57.595Z,22.30
2018-03-17T00:45:57.822Z,22.30
2018-03-17T00:46:58.033Z,21.80
2018-03-17T00:47:58.254Z,21.90
2018-03-17T00:48:58.523Z,22.80
2018-03-17T00:49:58.696Z,20.70
2018-03-17T00:50:58.915Z,20.60
2018-03-17T00:51:59.141Z,20.60
2018-03-17T00:52:59.358Z,21.20
2018-03-17T00:53:59.579Z,19.90
2018-03-17T00:54:59.804Z,20.90
2018-03-17T00:56:00.020Z,18.00
2018-03-17T00:57:00.238Z,20.30
2018-03-17T00:58:00.461Z,20.00
2018-03-17T00:59:00.690Z,19.50
2018-03-17T01:00:00.907Z,21.30
2018-03-17T01:01:01.121Z,20.00
2018-03-17T01:02:01.340Z,20.00
2018-03-17T01:03:01.564Z,21.50
2018-03-17T01:04:01.790Z,20.50
2018-03-17T01:05:02.007Z,22.30
2018-03-17T01:06:02.224Z,20.70
2018-03-17T01:07:02.449Z,20.30
2018-03-17T01:08:02.666Z,21.90
2018-03-17T01:09:02.883Z,19.20
2018-03-17T01:10:03.106Z,21.00
2018-03-17T01:11:03.322Z,20.90
2018-03-17T01:12:03.543Z,20.10
2018-03-17T01:13:03.764Z,17.20
2018-03-17T01:14:03.983Z,20.20
2018-03-17T01:15:04.204Z,21.10
2018-03-17T01:16:04.424Z,21.50
2018-03-17T01:17:04.701Z,19.20
2018-03-17T01:18:04.861Z,20.20
2018-03-17T01:19:05.085Z,18.70
2018-03-17T01:20:05.301Z,17.90
2018-03-17T01:21:05.524Z,17.90
2018-03-17T01:22:05.768Z,21.00
2018-03-17T01:23:05.951Z,20.50
2018-03-17T01:24:06.178Z,16.70
2018-03-17T01:25:06.400Z,20.10
2018-03-17T01:26:06.624Z,19.80
2018-03-17T01:27:06.843Z,18.30
2018-03-17T01:28:07.063Z,21.40
2018-03-17T01:29:07.283Z,18.50
2018-03-17T01:30:07.501Z,21.10
2018-03-17T01:31:07.720Z,18.80
2018-03-17T01:32:07.938Z,18.70
2018-03-17T01:33:08.158Z,18.50
2018-03-17T01:34:08.383Z,21.00
2018-03-17T01:35:08.601Z,20.00
2018-03-17T01:36:08.818Z,19.10
2018-03-17T01:37:09.041Z,20.60
2018-03-17T01:38:09.258Z,19.60
2018-03-17T01:39:09.479Z,18.50
2018-03-17T01:40:09.699Z,18.40
2018-03-17T01:41:09.929Z,17.40
2018-03-17T01:42:10.148Z,22.70
2018-03-17T01:43:10.362Z,19.20
2018-03-17T01:44:10.585Z,18.70
2018-03-17T01:45:10.805Z,18.70
2018-03-17T01:46:11.024Z,17.90
2018-03-17T01:47:11.249Z,17.60
2018-03-17T01:48:11.466Z,17.20
2018-03-17T01:49:11.687Z,20.30
2018-03-17T01:50:11.907Z,16.60
2018-03-17T01:51:12.124Z,18.60
2018-03-17T01:52:12.344Z,18.10
2018-03-17T01:53:12.566Z,18.30
2018-03-17T01:54:12.790Z,16.90
2018-03-17T01:55:13.021Z,16.40
2018-03-17T01:56:13.222Z,17.50
2018-03-17T01:57:13.441Z,19.00
2018-03-17T01:58:13.661Z,17.20
2018-03-17T01:59:13.881Z,16.90
2018-03-17T02:00:14.105Z,19.40
2018-03-17T02:01:14.327Z,17.00
2018-03-17T02:02:14.544Z,18.70
2018-03-17T02:03:14.764Z,15.40
2018-03-17T02:04:14.985Z,18.20
2018-03-17T02:05:15.205Z,16.00
2018-03-17T02:06:15.425Z,16.40
2018-03-17T02:07:15.644Z,19.70
2018-03-17T02:08:15.860Z,16.40
2018-03-17T02:09:16.080Z,15.40
2018-03-17T02:10:16.312Z,16.70
2018-03-17T02:11:16.527Z,16.50
2018-03-17T02:12:16.740Z,16.20
2018-03-17T02:13:16.974Z,16.00
2018-03-17T02:14:17.179Z,14.10
2018-03-17T02:15:17.399Z,13.20
2018-03-17T02:16:17.620Z,14.30
2018-03-17T02:17:17.842Z,14.10
2018-03-17T02:18:18.059Z,15.60
2018-03-17T02:19:18.279Z,16.10
2018-03-17T02:20:18.507Z,15.40
2018-03-17T02:21:18.716Z,15.50
2018-03-17T02:22:18.934Z,15.60
2018-03-17T02:23:19.156Z,15.70
2018-03-17T02:24:19.375Z,15.60
2018-03-17T02:25:19.596Z,14.20
2018-03-17T02:26:19.815Z,17.40
2018-03-17T02:27:20.912Z,14.80
2018-03-17T02:28:20.239Z,16.10
2018-03-17T02:29:20.467Z,15.60
2018-03-17T02:30:20.684Z,15.20
2018-03-17T02:31:20.899Z,17.40
2018-03-17T02:32:21.118Z,16.40
2018-03-17T02:33:21.336Z,15.60
2018-03-17T02:34:21.555Z,14.50
2018-03-17T02:35:21.772Z,16.20
2018-03-17T02:36:21.993Z,17.50
2018-03-17T02:37:22.211Z,16.50
2018-03-17T02:38:22.431Z,17.00
2018-03-17T02:39:22.648Z,16.60
2018-03-17T02:40:22.869Z,15.60
2018-03-17T02:41:23.093Z,16.30
2018-03-17T02:42:23.310Z,15.10
2018-03-17T02:43:23.529Z,14.80
2018-03-17T02:44:23.752Z,14.60
2018-03-17T02:45:23.972Z,15.10
2018-03-17T02:46:24.190Z,15.10
2018-03-17T02:47:24.407Z,16.30
2018-03-17T02:48:24.649Z,15.90
2018-03-17T02:49:24.871Z,16.00
2018-03-17T02:50:25.103Z,14.30
2018-03-17T02:51:25.310Z,15.30
2018-03-17T02:52:25.533Z,16.90
2018-03-17T02:53:25.757Z,19.50
2018-03-17T02:54:25.975Z,17.00
2018-03-17T02:55:26.192Z,15.20
2018-03-17T02:56:26.412Z,16.70
2018-03-17T02:57:26.633Z,16.10
2018-03-17T02:58:26.859Z,14.60
2018-03-17T02:59:27.073Z,16.90
2018-03-17T03:00:27.295Z,17.80
2018-03-17T03:01:27.514Z,16.70
2018-03-17T03:02:27.735Z,16.70
2018-03-17T03:03:27.949Z,14.10
2018-03-17T03:04:28.167Z,17.00
2018-03-17T03:05:28.386Z,14.00
2018-03-17T03:06:28.606Z,15.90
2018-03-17T03:07:28.827Z,16.80
2018-03-17T03:08:29.049Z,17.30
2018-03-17T03:09:29.267Z,17.30
2018-03-17T03:10:29.487Z,15.50
2018-03-17T03:11:29.705Z,16.20
2018-03-17T03:12:29.927Z,14.10
2018-03-17T03:13:30.146Z,15.90
2018-03-17T03:14:30.367Z,14.50
2018-03-17T03:15:30.589Z,16.30
2018-03-17T03:16:30.811Z,14.90
2018-03-17T03:17:31.029Z,14.50
2018-03-17T03:18:31.253Z,16.20
2018-03-17T03:19:31.473Z,17.00
2018-03-17T03:20:31.693Z,14.10
2018-03-17T03:21:31.914Z,14.40
2018-03-17T03:22:32.128Z,15.60
2018-03-17T03:23:32.354Z,13.70
2018-03-17T03:24:32.562Z,14.20
2018-03-17T03:25:32.780Z,15.50
2018-03-17T03:26:32.999Z,14.90
2018-03-17T03:27:33.217Z,14.90
2018-03-17T03:28:33.433Z,14.50
2018-03-17T03:29:33.654Z,16.40
2018-03-17T03:30:33.876Z,15.00
2018-03-17T03:31:34.097Z,14.90
2018-03-17T03:32:34.315Z,13.50
2018-03-17T03:33:34.533Z,15.10
2018-03-17T03:34:34.767Z,16.80
2018-03-17T03:35:34.973Z,13.60
2018-03-17T03:36:35.198Z,14.70
2018-03-17T03:37:35.412Z,12.80
2018-03-17T03:38:35.633Z,13.90
2018-03-17T03:39:35.852Z,15.20
2018-03-17T03:40:36.067Z,13.00
2018-03-17T03:41:36.287Z,12.70
2018-03-17T03:42:36.512Z,14.80
2018-03-17T03:43:36.728Z,13.20
2018-03-17T03:44:36.948Z,15.40
2018-03-17T03:45:37.165Z,13.70
2018-03-17T03:46:37.385Z,13.40
2018-03-17T03:47:37.605Z,10.40
2018-03-17T03:48:37.824Z,14.00
2018-03-17T03:49:38.041Z,12.60
2018-03-17T03:50:38.263Z,13.00
2018-03-17T03:51:38.482Z,11.80
2018-03-17T03:52:38.700Z,13.60
2018-03-17T03:53:38.915Z,11.80
2018-03-17T03:54:39.186Z,13.40
2018-03-17T03:55:39.341Z,15.30
2018-03-17T03:56:39.562Z,11.90
2018-03-17T03:57:39.789Z,11.80
2018-03-17T03:58:40.014Z,12.50
2018-03-17T03:59:40.232Z,12.20
2018-03-17T04:00:40.453Z,12.80
2018-03-17T04:01:40.671Z,12.70
2018-03-17T04:02:40.890Z,12.60
2018-03-17T04:03:41.109Z,13.40
2018-03-17T04:04:41.334Z,13.50
2018-03-17T04:05:41.547Z,15.10
2018-03-17T04:06:41.769Z,15.70
2018-03-17T04:07:41.982Z,12.90
2018-03-17T04:08:42.198Z,12.70
2018-03-17T04:09:42.416Z,12.60
2018-03-17T04:10:42.635Z,13.20
2018-03-17T04:11:42.855Z,10.60
2018-03-17T04:12:43.069Z,14.90
2018-03-17T04:13:43.289Z,13.60
2018-03-17T04:14:43.507Z,11.90
2018-03-17T04:15:43.725Z,13.40
2018-03-17T04:16:43.949Z,14.10
2018-03-17T04:17:44.163Z,11.50
2018-03-17T04:18:44.380Z,11.70
2018-03-17T04:19:44.600Z,12.70
2018-03-17T04:20:44.820Z,12.60
2018-03-17T04:21:45.042Z,12.10
2018-03-17T04:22:45.254Z,11.90
2018-03-17T04:23:45.474Z,11.40
2018-03-17T04:24:45.692Z,13.70
2018-03-17T04:25:45.911Z,13.20
2018-03-17T04:26:46.126Z,13.70
2018-03-17T04:27:46.349Z,11.00
2018-03-17T04:28:46.569Z,11.90
2018-03-17T04:29:46.789Z,12.10
2018-03-17T04:30:47.011Z,13.40
2018-03-17T04:31:47.232Z,13.10
2018-03-17T04:32:47.451Z,11.80
2018-03-17T04:33:47.668Z,12.20
2018-03-17T04:34:47.891Z,12.30
2018-03-17T04:35:48.107Z,12.10
2018-03-17T04:36:48.328Z,10.80
2018-03-17T04:37:48.557Z,11.80
2018-03-17T04:38:48.768Z,12.00
2018-03-17T04:39:48.976Z,12.60
2018-03-17T04:40:49.193Z,13.00
2018-03-17T04:41:49.421Z,13.60
2018-03-17T04:42:49.623Z,12.10
2018-03-17T04:43:49.843Z,15.60
2018-03-17T04:44:50.059Z,12.10
2018-03-17T04:45:50.279Z,12.90
2018-03-17T04:46:50.501Z,12.40
2018-03-17T04:47:50.721Z,13.00
2018-03-17T04:48:50.942Z,12.20
2018-03-17T04:49:51.164Z,13.80
2018-03-17T04:50:51.371Z,11.50
2018-03-17T04:51:51.592Z,11.30
2018-03-17T04:52:51.811Z,12.20
2018-03-17T04:53:52.033Z,13.20
2018-03-17T04:54:52.251Z,14.60
2018-03-17T04:55:52.471Z,13.70
2018-03-17T04:56:52.694Z,12.70
2018-03-17T04:57:52.913Z,9.00
2018-03-17T04:58:53.132Z,12.60
2018-03-17T04:59:53.356Z,10.50
2018-03-17T05:00:53.583Z,12.20
2018-03-17T05:01:53.795Z,12.50
2018-03-17T05:02:54.028Z,11.70
2018-03-17T05:03:54.234Z,10.50
2018-03-17T05:04:54.453Z,14.00
2018-03-17T05:05:54.674Z,12.40
2018-03-17T05:06:54.892Z,12.60
2018-03-17T05:07:55.111Z,12.10
2018-03-17T05:08:55.330Z,12.50
2018-03-17T05:09:55.588Z,10.90
2018-03-17T05:10:55.774Z,13.90
2018-03-17T05:11:55.993Z,13.90
2018-03-17T05:12:56.215Z,9.40
2018-03-17T05:13:56.430Z,12.00
2018-03-17T05:14:56.652Z,10.60
2018-03-17T05:15:56.876Z,11.80
2018-03-17T05:16:57.090Z,12.90
2018-03-17T05:17:57.314Z,11.30
2018-03-17T05:18:57.536Z,11.10
2018-03-17T05:19:57.753Z,12.30
2018-03-17T05:20:57.972Z,11.50
2018-03-17T05:21:58.194Z,10.90
2018-03-17T05:22:58.417Z,11.60
2018-03-17T05:23:58.628Z,11.10
2018-03-17T05:24:58.845Z,10.80
2018-03-17T05:25:59.068Z,10.00
2018-03-17T05:26:59.297Z,12.60
2018-03-17T05:27:59.506Z,12.70
2018-03-17T05:28:59.730Z,11.60
2018-03-17T05:29:59.949Z,9.50
2018-03-17T05:31:00.166Z,11.90
2018-03-17T05:32:00.389Z,12.80
2018-03-17T05:33:00.607Z,12.80
2018-03-17T05:34:00.825Z,11.20
2018-03-17T05:35:01.047Z,13.20
2018-03-17T05:36:01.267Z,11.10
2018-03-17T05:37:01.484Z,12.90
2018-03-17T05:38:01.702Z,10.50
2018-03-17T05:39:01.920Z,11.10
2018-03-17T05:40:02.145Z,11.60
2018-03-17T05:41:02.364Z,12.60
2018-03-17T05:42:02.585Z,11.90
2018-03-17T05:43:02.802Z,11.50
2018-03-17T05:44:03.018Z,13.90
2018-03-17T05:45:03.235Z,11.70
2018-03-17T05:46:03.457Z,12.80
2018-03-17T05:47:03.682Z,14.40
2018-03-17T05:48:03.894Z,12.50
2018-03-17T05:49:04.127Z,11.50
2018-03-17T05:50:04.333Z,12.00
2018-03-17T05:51:04.553Z,12.20
2018-03-17T05:52:04.772Z,14.20
2018-03-17T05:53:04.993Z,12.70
2018-03-17T05:54:05.212Z,12.50
2018-03-17T05:55:05.435Z,11.30
2018-03-17T05:56:05.655Z,10.80
2018-03-17T05:57:05.869Z,10.70
2018-03-17T05:58:06.085Z,12.70
2018-03-17T05:59:06.305Z,10.50
2018-03-17T06:00:06.523Z,13.40
2018-03-17T06:01:06.749Z,10.40
2018-03-17T06:02:06.966Z,13.90
2018-03-17T06:03:07.184Z,9.90
2018-03-17T06:04:07.408Z,12.80
2018-03-17T06:05:07.629Z,11.70
2018-03-17T06:06:07.853Z,11.80
2018-03-17T06:07:08.072Z,12.50
2018-03-17T06:08:08.295Z,11.40
2018-03-17T06:09:08.563Z,12.30
2018-03-17T06:10:08.736Z,14.40
2018-03-17T06:11:08.956Z,12.10
2018-03-17T06:12:09.181Z,11.80
2018-03-17T06:13:09.397Z,12.80
2018-03-17T06:14:09.626Z,11.20
2018-03-17T06:15:09.834Z,14.00
2018-03-17T06:16:10.055Z,12.70
2018-03-17T06:17:10.278Z,13.30
2018-03-17T06:18:10.497Z,12.00
2018-03-17T06:19:10.715Z,13.40
2018-03-17T06:20:10.931Z,12.30
2018-03-17T06:21:11.152Z,13.60
2018-03-17T06:22:11.371Z,10.80
2018-03-17T06:23:11.591Z,10.70
2018-03-17T06:24:11.810Z,11.00
2018-03-17T06:25:12.028Z,11.50
2018-03-17T06:26:12.245Z,10.90
2018-03-17T06:27:12.545Z,13.20
2018-03-17T06:28:12.661Z,12.80
2018-03-17T06:29:12.878Z,13.00
2018-03-17T06:30:13.096Z,11.70
2018-03-17T06:31:13.320Z,12.30
2018-03-17T06:32:13.534Z,11.50
2018-03-17T06:33:13.753Z,10.30
2018-03-17T06:34:13.970Z,11.10
2018-03-17T06:35:14.196Z,11.80
2018-03-17T06:36:14.410Z,12.20
2018-03-17T06:37:14.632Z,10.40
2018-03-17T06:38:14.850Z,11.40
2018-03-17T06:39:15.068Z,12.00
2018-03-17T06:40:15.283Z,11.20
2018-03-17T06:41:15.504Z,10.20
2018-03-17T06:42:15.723Z,12.30
2018-03-17T06:43:15.941Z,12.90
2018-03-17T06:44:16.159Z,11.70
2018-03-17T06:45:16.379Z,11.60
2018-03-17T06:46:16.598Z,11.60
2018-03-17T06:47:16.813Z,11.80
2018-03-17T06:48:17.042Z,10.80
2018-03-17T06:49:17.263Z,11.30
2018-03-17T06:50:17.546Z,12.90
2018-03-17T06:51:17.698Z,12.00
2018-03-17T06:52:17.916Z,11.10
2018-03-17T06:53:18.135Z,13.30
2018-03-17T06:54:18.353Z,10.00
2018-03-17T06:55:18.601Z,10.30
2018-03-17T06:56:18.798Z,12.00
2018-03-17T06:57:19.018Z,10.90
2018-03-17T06:58:19.236Z,11.40
2018-03-17T06:59:19.454Z,10.40
2018-03-17T07:00:19.674Z,10.90
2018-03-17T07:01:19.892Z,10.40
2018-03-17T07:02:20.112Z,8.90
2018-03-17T07:03:20.326Z,11.50
2018-03-17T07:04:20.553Z,11.20
2018-03-17T07:05:20.763Z,8.70
2018-03-17T07:06:20.982Z,10.90
2018-03-17T07:07:21.201Z,11.00
2018-03-17T07:08:21.419Z,9.30
2018-03-17T07:09:21.651Z,10.40
2018-03-17T07:10:21.858Z,10.90
2018-03-17T07:11:22.074Z,9.50
2018-03-17T07:12:22.292Z,9.50
2018-03-17T07:13:22.514Z,11.80
2018-03-17T07:14:22.731Z,11.60
2018-03-17T07:15:22.950Z,10.30
2018-03-17T07:16:23.170Z,10.50
2018-03-17T07:17:23.389Z,9.40
2018-03-17T07:18:23.610Z,11.30
2018-03-17T07:19:23.825Z,10.80
2018-03-17T07:20:24.041Z,12.40
2018-03-17T07:21:24.259Z,13.10
2018-03-17T07:22:24.479Z,8.60
2018-03-17T07:23:24.696Z,10.00
2018-03-17T07:24:24.915Z,11.10
2018-03-17T07:25:25.150Z,13.20
2018-03-17T07:26:25.356Z,11.40
2018-03-17T07:27:25.573Z,9.60
2018-03-17T07:28:25.794Z,13.00
2018-03-17T07:29:26.010Z,9.90
2018-03-17T07:30:26.229Z,11.50
2018-03-17T07:31:26.447Z,10.00
2018-03-17T07:32:26.667Z,10.60
2018-03-17T07:33:26.887Z,12.00
2018-03-17T07:34:27.121Z,9.90
2018-03-17T07:35:27.333Z,8.10
2018-03-17T07:36:27.555Z,10.90
2018-03-17T07:37:27.769Z,9.80
2018-03-17T07:38:27.981Z,13.80
2018-03-17T07:39:28.200Z,11.80
2018-03-17T07:40:28.420Z,10.20
2018-03-17T07:41:28.639Z,15.00
2018-03-17T07:42:28.860Z,11.20
2018-03-17T07:43:29.079Z,15.30
2018-03-17T07:44:29.297Z,11.80
2018-03-17T07:45:29.513Z,10.30
2018-03-17T07:46:29.733Z,14.00
2018-03-17T07:47:29.960Z,10.30
2018-03-17T07:48:30.170Z,11.20
2018-03-17T07:49:30.391Z,10.10
2018-03-17T07:50:30.608Z,9.20
2018-03-17T07:51:30.820Z,11.40
2018-03-17T07:52:31.036Z,10.90
2018-03-17T07:53:31.254Z,11.40
2018-03-17T07:54:31.473Z,9.00
2018-03-17T07:55:31.692Z,12.20
2018-03-17T07:56:31.910Z,11.10
2018-03-17T07:57:32.129Z,11.60
2018-03-17T07:58:32.347Z,11.50
2018-03-17T07:59:32.566Z,12.70
2018-03-17T08:00:32.787Z,10.60
2018-03-17T08:01:33.009Z,12.50
2018-03-17T08:02:33.226Z,12.20
2018-03-17T08:03:33.448Z,10.20
2018-03-17T08:04:33.671Z,11.80
2018-03-17T08:05:33.866Z,12.80
2018-03-17T08:06:34.089Z,12.30
2018-03-17T08:07:34.311Z,11.70
2018-03-17T08:08:34.531Z,11.50
2018-03-17T08:09:34.749Z,12.20
2018-03-17T08:10:34.972Z,12.60
2018-03-17T08:11:35.192Z,13.20
2018-03-17T08:12:35.411Z,13.00
2018-03-17T08:13:35.633Z,10.90
2018-03-17T08:14:35.853Z,12.20
2018-03-17T08:15:36.071Z,10.80
2018-03-17T08:16:36.289Z,13.20
2018-03-17T08:17:36.506Z,9.40
2018-03-17T08:18:36.723Z,9.80
2018-03-17T08:19:36.943Z,11.70
2018-03-17T08:20:37.162Z,11.20
2018-03-17T08:21:37.383Z,11.90
2018-03-17T08:22:37.590Z,13.50
2018-03-17T08:23:37.807Z,10.90
2018-03-17T08:24:38.037Z,10.70
2018-03-17T08:25:38.259Z,12.10
2018-03-17T08:26:38.478Z,11.30
2018-03-17T08:27:38.697Z,12.40
2018-03-17T08:28:38.918Z,12.80
2018-03-17T08:29:39.137Z,11.70
2018-03-17T08:30:39.361Z,9.90
2018-03-17T08:31:39.566Z,10.00
2018-03-17T08:32:39.790Z,10.80
2018-03-17T08:33:40.009Z,10.50
2018-03-17T08:34:40.229Z,10.80
2018-03-17T08:35:40.444Z,10.30
2018-03-17T08:36:40.666Z,11.70
2018-03-17T08:37:40.888Z,11.70
2018-03-17T08:38:41.109Z,11.20
2018-03-17T08:39:41.329Z,11.30
2018-03-17T08:40:41.547Z,11.70
2018-03-17T08:41:41.767Z,11.00
2018-03-17T08:42:41.989Z,11.50
2018-03-17T08:43:42.204Z,9.00
2018-03-17T08:44:42.428Z,11.50
2018-03-17T08:45:42.638Z,11.80
2018-03-17T08:46:42.866Z,8.90
2018-03-17T08:47:43.094Z,9.30
2018-03-17T08:48:43.300Z,10.50
2018-03-17T08:49:43.500Z,11.50
2018-03-17T08:50:43.702Z,12.50
2018-03-17T08:51:43.922Z,11.20
2018-03-17T08:52:44.141Z,12.40
2018-03-17T08:53:44.364Z,10.20
2018-03-17T08:54:44.580Z,12.50
2018-03-17T08:55:44.800Z,12.40
2018-03-17T08:56:45.019Z,10.30
2018-03-17T08:57:45.240Z,10.10
2018-03-17T08:58:45.497Z,11.30
2018-03-17T08:59:45.682Z,12.30
2018-03-17T09:00:45.900Z,10.90
2018-03-17T09:01:46.122Z,10.60
2018-03-17T09:02:46.333Z,11.00
2018-03-17T09:03:46.552Z,12.50
2018-03-17T09:04:46.774Z,11.60
2018-03-17T09:05:46.992Z,16.20
2018-03-17T09:06:47.228Z,11.70
2018-03-17T09:07:47.456Z,8.80
2018-03-17T09:08:47.676Z,10.30
2018-03-17T09:09:47.893Z,10.10
2018-03-17T09:10:48.133Z,10.30
2018-03-17T09:11:48.334Z,10.30
2018-03-17T09:12:48.551Z,11.50
2018-03-17T09:13:48.773Z,9.80
2018-03-17T09:14:48.989Z,13.30
2018-03-17T09:15:49.207Z,12.30
2018-03-17T09:16:49.431Z,9.10
2018-03-17T09:17:49.651Z,11.70
2018-03-17T09:18:49.869Z,10.90
2018-03-17T09:19:50.095Z,9.40
2018-03-17T09:20:50.393Z,12.00
2018-03-17T09:21:50.489Z,10.20
2018-03-17T09:22:50.707Z,10.70
2018-03-17T09:23:50.925Z,8.50
2018-03-17T09:24:51.145Z,9.60
2018-03-17T09:25:51.362Z,8.90
2018-03-17T09:26:51.581Z,10.50
2018-03-17T09:27:51.814Z,9.50
2018-03-17T09:28:52.023Z,10.50
2018-03-17T09:29:52.246Z,12.30
2018-03-17T09:30:52.461Z,11.70
2018-03-17T09:31:52.684Z,11.10
2018-03-17T09:32:52.903Z,11.90
2018-03-17T09:33:53.127Z,10.60
2018-03-17T09:34:53.346Z,9.80
2018-03-17T09:35:53.564Z,10.50
2018-03-17T09:36:53.784Z,11.50
2018-03-17T09:37:54.005Z,9.50
2018-03-17T09:38:54.224Z,10.80
2018-03-17T09:39:54.442Z,13.20
2018-03-17T09:40:54.658Z,10.60
2018-03-17T09:41:54.876Z,13.00
2018-03-17T09:42:55.103Z,12.20
2018-03-17T09:43:55.318Z,12.40
2018-03-17T09:44:55.537Z,11.10
2018-03-17T09:45:55.755Z,10.20
2018-03-17T09:46:55.982Z,11.40
2018-03-17T09:47:56.194Z,9.80
2018-03-17T09:48:56.410Z,9.90
2018-03-17T09:49:56.638Z,9.50
2018-03-17T09:50:56.851Z,10.70
2018-03-17T09:51:57.078Z,11.70
2018-03-17T09:52:57.307Z,9.80
2018-03-17T09:53:57.524Z,13.20
2018-03-17T09:54:57.745Z,11.20
2018-03-17T09:55:57.963Z,10.30
2018-03-17T09:56:58.190Z,11.50
2018-03-17T09:57:58.409Z,11.10
2018-03-17T09:58:58.627Z,9.50
2018-03-17T09:59:58.849Z,12.30
2018-03-17T10:00:59.065Z,9.20
2018-03-17T10:01:59.290Z,12.10
2018-03-17T10:02:59.503Z,10.70
2018-03-17T10:03:59.730Z,10.10
2018-03-17T10:04:59.953Z,11.90
2018-03-17T10:06:00.167Z,10.60
2018-03-17T10:07:00.386Z,10.50
2018-03-17T10:08:00.606Z,11.30
2018-03-17T10:09:00.828Z,10.60
2018-03-17T10:10:01.050Z,10.00
2018-03-17T10:11:01.271Z,12.40
2018-03-17T10:12:01.486Z,11.50
2018-03-17T10:13:01.709Z,12.00
2018-03-17T10:14:01.923Z,10.60
2018-03-17T10:15:02.142Z,11.90
2018-03-17T10:16:02.364Z,11.80
2018-03-17T10:17:02.584Z,8.40
2018-03-17T10:18:02.806Z,9.40
2018-03-17T10:19:03.020Z,11.20
2018-03-17T10:20:03.239Z,10.00
2018-03-17T10:21:03.460Z,11.80
2018-03-17T10:22:03.685Z,12.10
2018-03-17T10:23:03.898Z,11.10
2018-03-17T10:24:04.119Z,10.90
2018-03-17T10:25:04.338Z,11.70
2018-03-17T10:26:04.558Z,12.30
2018-03-17T10:27:04.780Z,11.40
2018-03-17T10:28:04.991Z,12.50
2018-03-17T10:29:05.215Z,9.20
2018-03-17T10:30:05.434Z,10.60
2018-03-17T10:31:05.662Z,11.90
2018-03-17T10:32:05.876Z,11.80
2018-03-17T10:33:06.093Z,9.20
2018-03-17T10:34:06.321Z,10.80
2018-03-17T10:35:06.528Z,9.80
2018-03-17T10:36:06.754Z,9.00
2018-03-17T10:37:06.969Z,9.00
2018-03-17T10:38:07.193Z,11.10
2018-03-17T10:39:07.410Z,12.30
2018-03-17T10:40:07.626Z,11.70
2018-03-17T10:41:07.856Z,11.00
2018-03-17T10:42:08.080Z,9.70
2018-03-17T10:43:08.318Z,9.40
2018-03-17T10:44:08.539Z,10.10
2018-03-17T10:45:08.756Z,9.80
2018-03-17T10:46:08.978Z,10.30
2018-03-17T10:47:09.196Z,13.70
2018-03-17T10:48:09.411Z,12.00
2018-03-17T10:49:09.636Z,9.40
2018-03-17T10:50:09.854Z,11.60
2018-03-17T10:51:10.081Z,12.60
2018-03-17T10:52:10.295Z,9.50
2018-03-17T10:53:10.517Z,9.60
2018-03-17T10:54:10.737Z,12.10
2018-03-17T10:55:10.978Z,11.10
2018-03-17T10:56:11.201Z,13.90
2018-03-17T10:57:11.414Z,11.20
2018-03-17T10:58:11.651Z,11.10
2018-03-17T10:59:11.872Z,10.10
2018-03-17T11:00:12.122Z,10.20
2018-03-17T11:01:12.319Z,13.60
2018-03-17T11:02:12.542Z,9.40
2018-03-17T11:03:12.762Z,11.90
2018-03-17T11:04:13.059Z,11.80
2018-03-17T11:05:13.161Z,11.90
2018-03-17T11:06:13.389Z,12.10
2018-03-17T11:07:13.647Z,11.60
2018-03-17T11:08:13.872Z,11.10
2018-03-17T11:09:14.093Z,11.90
2018-03-17T11:10:14.389Z,10.30
2018-03-17T11:11:14.501Z,13.60
2018-03-17T11:12:14.740Z,11.30
2018-03-17T11:13:14.963Z,12.70
2018-03-17T11:14:15.286Z,11.00
2018-03-17T11:15:15.460Z,12.40
2018-03-17T11:16:15.686Z,13.20
2018-03-17T11:17:15.907Z,9.90
2018-03-17T11:18:16.057Z,10.10
2018-03-17T11:19:16.311Z,9.30
2018-03-17T11:20:16.535Z,4.00
2018-03-17T11:21:16.763Z,6.00
2018-03-17T11:22:17.004Z,6.60
2018-03-17T11:23:17.225Z,9.20
2018-03-17T11:24:17.446Z,5.40
2018-03-17T11:25:17.666Z,6.20
2018-03-17T11:26:17.914Z,5.50
2018-03-17T11:27:18.139Z,4.10
2018-03-17T11:28:18.398Z,6.50
2018-03-17T11:29:18.634Z,6.30
2018-03-17T11:30:18.902Z,5.00
2018-03-17T11:31:19.081Z,6.40
2018-03-17T11:32:19.310Z,4.40
2018-03-17T11:33:19.534Z,4.60
2018-03-17T11:34:19.788Z,4.90
2018-03-17T11:35:20.016Z,5.50
2018-03-17T11:36:20.258Z,10.30
2018-03-17T11:37:20.515Z,6.80
2018-03-17T11:38:20.728Z,5.10
2018-03-17T11:39:20.962Z,6.60
2018-03-17T11:40:21.180Z,6.70
2018-03-17T11:41:21.398Z,6.10
2018-03-17T11:42:21.616Z,4.80
2018-03-17T11:43:21.848Z,4.80
2018-03-17T11:44:22.149Z,4.00
2018-03-17T11:45:22.242Z,5.40
2018-03-17T11:46:22.470Z,6.60
2018-03-17T11:47:22.694Z,5.60
2018-03-17T11:48:22.946Z,5.00
2018-03-17T11:49:23.133Z,6.30
2018-03-17T11:50:23.430Z,7.60
2018-03-17T11:51:23.533Z,6.20
2018-03-17T11:52:23.761Z,6.10
2018-03-17T11:53:23.963Z,3.40
2018-03-17T11:54:24.187Z,7.40
2018-03-17T11:55:24.407Z,4.80
2018-03-17T11:56:24.635Z,4.10
2018-03-17T11:57:24.858Z,4.90
2018-03-17T11:58:25.077Z,4.50
2018-03-17T11:59:25.300Z,3.10
2018-03-17T12:00:25.522Z,7.20
2018-03-17T12:01:25.749Z,5.70
2018-03-17T12:02:25.967Z,8.00
2018-03-17T12:03:26.184Z,5.70
2018-03-17T12:04:26.404Z,3.50
2018-03-17T12:05:26.639Z,4.80
2018-03-17T12:06:26.857Z,3.50
2018-03-17T12:07:27.078Z,5.40
2018-03-17T12:08:27.297Z,3.80
2018-03-17T12:09:27.513Z,5.10
2018-03-17T12:10:27.730Z,5.50
2018-03-17T12:11:27.954Z,4.10
2018-03-17T12:12:28.171Z,6.30
2018-03-17T12:13:28.392Z,4.00
2018-03-17T12:14:28.608Z,5.00
2018-03-17T12:15:28.830Z,7.70
2018-03-17T12:16:29.052Z,5.20
2018-03-17T12:17:29.271Z,6.30
2018-03-17T12:18:29.486Z,4.50
2018-03-17T12:19:29.718Z,6.80
2018-03-17T12:20:29.933Z,5.80
2018-03-17T12:21:30.156Z,3.30
2018-03-17T12:22:30.377Z,4.90
2018-03-17T12:23:30.600Z,3.10
2018-03-17T12:24:30.808Z,5.00
2018-03-17T12:25:31.028Z,6.30
2018-03-17T12:26:31.248Z,5.10
2018-03-17T12:27:31.469Z,3.20
2018-03-17T12:28:31.693Z,4.90
2018-03-17T12:29:31.950Z,6.10
2018-03-17T12:32:05.308Z,5.90
2018-03-17T12:33:05.524Z,7.10
2018-03-17T12:34:05.752Z,4.30
2018-03-17T12:35:05.976Z,6.10
2018-03-17T12:36:06.204Z,3.70
2018-03-17T12:37:06.464Z,5.80
2018-03-17T12:38:06.743Z,5.70
2018-03-17T12:39:07.026Z,5.50
2018-03-17T12:40:07.129Z,12.60
2018-03-17T12:41:07.457Z,5.00
2018-03-17T12:42:07.555Z,4.10
2018-03-17T12:43:07.774Z,6.00
2018-03-17T12:44:08.026Z,6.10
2018-03-17T12:45:08.245Z,6.00
2018-03-17T12:46:08.502Z,4.50
2018-03-17T12:47:08.736Z,4.80
2018-03-17T12:48:08.954Z,3.70
2018-03-17T12:49:09.171Z,7.10
2018-03-17T12:50:09.401Z,5.30
2018-03-17T12:51:09.629Z,4.10
2018-03-17T12:52:09.854Z,5.30
2018-03-17T12:53:10.074Z,5.40
2018-03-17T12:54:10.293Z,6.00
2018-03-17T12:55:10.514Z,4.90
2018-03-17T12:56:10.735Z,3.90
2018-03-17T12:57:10.957Z,5.40
2018-03-17T12:58:11.184Z,5.10
2018-03-17T12:59:11.410Z,7.40
2018-03-17T13:00:11.632Z,3.90
2018-03-17T13:01:11.856Z,5.60
2018-03-17T13:02:12.080Z,4.60